Time;durP1;ratioP1;P1;durP2;ratioP2;P2;SDS_P1;SDS_P2;PMS_P1;PMS_P2;Temp;Humidity;BMP_temperature;BMP_pressure;BME280_temperature;BME280_humidity;BME280_pressure;Samples;Min_cycle;Max_cycle;Signal;HPM_P1;HPM_P2
2023/05/27 00:01:02;;;;;;;10.00;5.03;;;22.20;71.30;;;;;;4987061;28;20026;-55
2023/05/27 00:03:28;;;;;;;14.85;5.43;;;22.20;71.40;;;;;;4984884;28;20049;-55
2023/05/27 00:05:53;;;;;;;10.18;5.25;;;22.10;71.30;;;;;;4986354;28;20031;-54
2023/05/27 00:08:19;;;;;;;7.38;4.72;;;22.10;71.50;;;;;;4985076;28;20035;-55
2023/05/27 00:10:45;;;;;;;7.57;4.93;;;22.10;71.50;;;;;;4986556;28;20106;-55
2023/05/27 00:13:10;;;;;;;10.23;5.50;;;22.00;71.50;;;;;;4984581;28;20103;-55
2023/05/27 00:15:38;;;;;;;7.15;5.05;;;22.00;71.50;;;;;;4985592;28;20425;-55
2023/05/27 00:18:03;;;;;;;11.77;5.40;;;22.00;71.70;;;;;;4985521;28;20041;-55
2023/05/27 00:20:30;;;;;;;6.53;4.43;;;22.00;71.80;;;;;;4986356;28;20050;-55
2023/05/27 00:22:56;;;;;;;9.02;4.90;;;21.90;71.80;;;;;;4985146;28;20054;-55
2023/05/27 00:25:22;;;;;;;8.63;4.70;;;21.90;71.90;;;;;;4985726;28;20031;-55
2023/05/27 00:27:48;;;;;;;8.00;4.85;;;21.90;72.00;;;;;;4985544;28;20041;-55
2023/05/27 00:30:14;;;;;;;8.43;4.70;;;21.80;72.00;;;;;;4969540;28;20023;-54
2023/05/27 00:32:39;;;;;;;8.73;4.95;;;21.80;72.00;;;;;;4984459;28;20031;-55
2023/05/27 00:35:05;;;;;;;8.25;4.70;;;21.80;72.20;;;;;;4985647;28;20368;-55
2023/05/27 00:37:31;;;;;;;9.10;4.95;;;21.70;72.20;;;;;;4984566;28;20111;-55
2023/05/27 00:39:56;;;;;;;10.40;4.95;;;21.70;72.30;;;;;;4984544;28;20031;-54
2023/05/27 00:42:22;;;;;;;7.35;4.68;;;21.70;72.30;;;;;;4985078;28;20045;-55
2023/05/27 00:44:47;;;;;;;10.60;5.10;;;21.70;72.30;;;;;;4984279;28;20031;-55
2023/05/27 00:47:15;;;;;;;13.18;4.90;;;21.60;72.30;;;;;;4984409;28;20094;-55
2023/05/27 00:49:41;;;;;;;9.02;5.15;;;21.60;72.40;;;;;;4984804;28;20034;-55
2023/05/27 00:52:07;;;;;;;9.07;5.00;;;21.60;72.50;;;;;;4984856;28;20045;-55
2023/05/27 00:54:32;;;;;;;6.70;4.80;;;21.60;72.50;;;;;;4984711;28;20030;-54
2023/05/27 00:56:58;;;;;;;8.77;5.20;;;21.60;72.70;;;;;;4984464;28;20119;-55
2023/05/27 00:59:23;;;;;;;9.10;4.72;;;21.50;72.60;;;;;;4985011;28;20043;-55
2023/05/27 01:01:49;;;;;;;12.23;5.43;;;21.60;72.70;;;;;;4984639;28;20059;-54
2023/05/27 01:04:15;;;;;;;8.00;4.53;;;21.50;72.70;;;;;;5016544;28;20031;-55
2023/05/27 01:06:47;;;;;;;8.70;4.93;;;21.50;72.80;;;;;;4984095;28;20038;-55
2023/05/27 01:09:34;;;;;;;9.90;5.35;;;21.50;72.90;;;;;;4977100;28;20040;-55
2023/05/27 01:12:07;;;;;;;9.25;4.80;;;21.40;72.90;;;;;;5008196;28;20027;-55
2023/05/27 01:14:33;;;;;;;10.65;4.75;;;21.40;72.90;;;;;;4984993;28;20030;-55
2023/05/27 01:17:00;;;;;;;8.35;4.80;;;21.40;72.80;;;;;;4984456;28;20042;-55
2023/05/27 01:19:34;;;;;;;6.28;4.38;;;21.40;72.70;;;;;;4984944;28;20015;-54
2023/05/27 01:22:00;;;;;;;9.48;4.95;;;21.40;72.90;;;;;;4984958;28;20045;-54
2023/05/27 01:24:26;;;;;;;12.15;4.60;;;21.30;72.90;;;;;;4968540;28;20031;-55
2023/05/27 01:26:52;;;;;;;8.52;4.97;;;21.30;73.00;;;;;;4984847;28;20035;-54
2023/05/27 01:29:18;;;;;;;8.40;4.97;;;21.20;73.00;;;;;;4984540;28;20034;-55
2023/05/27 01:32:02;;;;;;;9.40;4.82;;;21.30;73.00;;;;;;4985957;28;20039;-55
2023/05/27 01:34:43;;;;;;;7.93;4.47;;;21.30;73.00;;;;;;4968523;28;20114;-55
2023/05/27 01:37:10;;;;;;;8.45;5.13;;;21.20;73.10;;;;;;4984626;28;20107;-55
2023/05/27 01:39:36;;;;;;;8.00;4.93;;;21.20;73.10;;;;;;4984793;28;20035;-55
2023/05/27 01:42:02;;;;;;;7.65;4.70;;;21.20;73.10;;;;;;4984675;28;20023;-54
2023/05/27 01:44:28;;;;;;;6.43;4.63;;;21.10;73.20;;;;;;4984542;28;20038;-54
2023/05/27 01:46:58;;;;;;;5.90;4.30;;;21.10;73.20;;;;;;4985890;28;20097;-55
2023/05/27 01:49:24;;;;;;;12.13;5.03;;;21.10;73.20;;;;;;4984535;28;20027;-54
2023/05/27 01:51:49;;;;;;;8.10;4.80;;;21.10;73.30;;;;;;4985329;28;20054;-55
2023/05/27 01:54:15;;;;;;;7.45;5.00;;;21.00;73.30;;;;;;4985109;28;20039;-55
2023/05/27 01:56:41;;;;;;;8.15;4.50;;;21.00;73.30;;;;;;4983558;28;20141;-55
2023/05/27 01:59:06;;;;;;;11.32;5.10;;;21.00;73.40;;;;;;4983874;28;20102;-55
2023/05/27 02:01:34;;;;;;;7.97;4.32;;;21.00;74.10;;;;;;4983986;28;20033;-55
2023/05/27 02:03:59;;;;;;;10.07;4.53;;;21.00;73.60;;;;;;4984285;28;20062;-54
2023/05/27 02:06:26;;;;;;;8.80;4.43;;;20.90;73.60;;;;;;4985150;28;20051;-55
2023/05/27 02:08:51;;;;;;;8.80;4.68;;;20.90;73.60;;;;;;4982092;28;20027;-55
2023/05/27 02:11:17;;;;;;;9.30;4.80;;;20.90;73.60;;;;;;4983947;28;20363;-55
2023/05/27 02:13:42;;;;;;;9.45;4.65;;;20.90;73.60;;;;;;4984093;28;20091;-55
2023/05/27 02:16:08;;;;;;;9.35;4.60;;;20.90;73.60;;;;;;4984332;28;20022;-55
2023/05/27 02:18:37;;;;;;;10.05;4.60;;;20.80;73.60;;;;;;4983085;28;20099;-54
2023/05/27 02:21:05;;;;;;;12.57;4.63;;;20.80;73.70;;;;;;4985569;28;20062;-54
2023/05/27 02:23:32;;;;;;;11.57;5.13;;;20.80;73.80;;;;;;4985286;28;20039;-55
2023/05/27 02:25:57;;;;;;;9.93;4.65;;;20.80;73.90;;;;;;4984378;28;20031;-54
2023/05/27 02:28:23;;;;;;;9.32;5.05;;;20.80;73.90;;;;;;4987086;28;20033;-54
2023/05/27 02:30:49;;;;;;;6.15;5.00;;;20.70;74.60;;;;;;4987291;28;20034;-55
2023/05/27 02:33:15;;;;;;;6.95;4.88;;;20.70;73.90;;;;;;5003588;28;20057;-54
2023/05/27 02:35:40;;;;;;;7.95;4.82;;;20.70;74.00;;;;;;4987998;28;20102;-54
2023/05/27 02:38:06;;;;;;;9.23;5.10;;;20.70;74.00;;;;;;4986580;28;20034;-54
2023/05/27 02:40:31;;;;;;;7.60;4.72;;;20.70;74.00;;;;;;4986382;28;20027;-55
2023/05/27 02:42:57;;;;;;;9.50;4.97;;;20.60;74.10;;;;;;4986706;28;20039;-55
2023/05/27 02:45:23;;;;;;;5.35;4.50;;;20.60;74.20;;;;;;4987498;28;20034;-53
2023/05/27 02:47:49;;;;;;;6.68;4.97;;;20.60;74.20;;;;;;4988084;28;20035;-55
2023/05/27 02:50:14;;;;;;;6.90;5.03;;;20.60;74.30;;;;;;4971365;28;20026;-55
2023/05/27 02:52:40;;;;;;;8.20;5.47;;;20.60;75.00;;;;;;4988462;28;20059;-55
2023/05/27 02:55:07;;;;;;;10.90;5.50;;;20.50;74.30;;;;;;4987693;28;20035;-54
2023/05/27 02:57:32;;;;;;;8.15;5.60;;;20.50;74.40;;;;;;4986693;28;20031;-55
2023/05/27 02:59:58;;;;;;;7.57;5.07;;;20.50;74.50;;;;;;4986802;28;20031;-55
2023/05/27 03:02:23;;;;;;;7.53;5.38;;;20.50;74.50;;;;;;4986797;28;20475;-55
2023/05/27 03:04:49;;;;;;;8.73;5.35;;;20.50;74.50;;;;;;4987835;28;20059;-55
2023/05/27 03:07:14;;;;;;;8.27;5.82;;;20.50;74.50;;;;;;4988168;28;20049;-54
2023/05/27 03:09:40;;;;;;;7.07;5.43;;;20.40;74.50;;;;;;4988491;28;20031;-55
2023/05/27 03:12:06;;;;;;;8.98;5.13;;;20.40;74.60;;;;;;4986982;28;20041;-54
2023/05/27 03:14:31;;;;;;;10.90;5.93;;;20.40;74.60;;;;;;4986421;28;20107;-55
2023/05/27 03:16:57;;;;;;;9.98;5.60;;;20.40;74.60;;;;;;4985539;28;20046;-55
2023/05/27 03:19:23;;;;;;;6.10;5.22;;;20.40;74.60;;;;;;5002524;28;20054;-55
2023/05/27 03:21:49;;;;;;;6.85;5.50;;;20.40;74.70;;;;;;4987595;28;20076;-54
2023/05/27 03:24:14;;;;;;;10.10;5.85;;;20.40;74.80;;;;;;4988213;28;20086;-55
2023/05/27 03:26:40;;;;;;;7.82;5.78;;;20.30;74.80;;;;;;4993916;28;20081;-55
2023/05/27 03:29:06;;;;;;;10.15;6.10;;;20.30;75.50;;;;;;4984065;28;20031;-54
2023/05/27 03:31:31;;;;;;;26.90;7.80;;;20.20;74.80;;;;;;5010175;28;20042;-55
2023/05/27 03:33:57;;;;;;;18.88;8.07;;;20.30;74.80;;;;;;4987636;28;20038;-55
2023/05/27 03:36:22;;;;;;;53.90;11.65;;;20.30;74.90;;;;;;4989436;28;20029;-53
2023/05/27 03:38:48;;;;;;;36.70;9.98;;;20.20;74.90;;;;;;4986946;28;20026;-55
2023/05/27 03:41:13;;;;;;;28.58;9.20;;;20.20;74.90;;;;;;4986887;28;20042;-55
2023/05/27 03:43:39;;;;;;;36.15;9.98;;;20.20;74.90;;;;;;4984588;28;20038;-54
2023/05/27 03:46:06;;;;;;;27.17;8.32;;;20.20;75.00;;;;;;4985677;28;20460;-54
2023/05/27 03:48:32;;;;;;;41.58;10.02;;;20.20;75.00;;;;;;4985100;28;20027;-54
2023/05/27 03:50:57;;;;;;;35.63;8.52;;;20.20;75.00;;;;;;4986274;28;20037;-55
2023/05/27 03:53:23;;;;;;;29.20;7.60;;;20.10;75.00;;;;;;4986609;28;20031;-55
2023/05/27 03:55:48;;;;;;;24.25;8.35;;;20.10;74.90;;;;;;4967092;28;20084;-54
2023/05/27 03:58:14;;;;;;;28.50;8.45;;;20.10;75.00;;;;;;4984605;28;20089;-54
2023/05/27 04:00:41;;;;;;;22.73;8.43;;;20.10;75.00;;;;;;5001911;28;20027;-55
2023/05/27 04:03:07;;;;;;;31.48;8.65;;;20.00;75.00;;;;;;4969298;28;20083;-54
2023/05/27 04:05:33;;;;;;;27.27;8.68;;;20.00;75.00;;;;;;4984868;28;20031;-55
2023/05/27 04:07:59;;;;;;;32.65;8.32;;;20.00;74.90;;;;;;4986902;28;20368;-55
2023/05/27 04:10:24;;;;;;;26.17;8.73;;;20.00;74.90;;;;;;4986103;28;20075;-54
2023/05/27 04:12:50;;;;;;;32.58;8.48;;;20.00;75.00;;;;;;4985146;28;20045;-55
2023/05/27 04:15:15;;;;;;;34.22;8.70;;;20.00;75.00;;;;;;4985711;28;20030;-55
2023/05/27 04:17:41;;;;;;;36.88;9.25;;;19.90;75.00;;;;;;4985143;28;20042;-55
2023/05/27 04:20:13;;;;;;;31.45;9.05;;;19.90;75.00;;;;;;4986426;28;20033;-55
2023/05/27 04:22:40;;;;;;;27.38;8.48;;;19.90;75.00;;;;;;4985480;28;20042;-55
2023/05/27 04:25:07;;;;;;;23.30;8.50;;;19.90;75.00;;;;;;4987222;28;20165;-54
2023/05/27 04:27:33;;;;;;;28.42;8.10;;;19.90;75.00;;;;;;4984864;28;20035;-55
2023/05/27 04:29:59;;;;;;;30.17;7.68;;;19.90;75.10;;;;;;5001292;28;20035;-55
2023/05/27 04:32:32;;;;;;;22.20;7.50;;;19.90;75.00;;;;;;4984943;28;20133;-54
2023/05/27 04:34:58;;;;;;;17.23;7.55;;;19.80;74.90;;;;;;4985006;28;20031;-54
2023/05/27 04:37:27;;;;;;;26.52;7.55;;;19.80;74.90;;;;;;4987056;28;20046;-55
2023/05/27 04:39:56;;;;;;;24.55;7.78;;;19.80;75.00;;;;;;4985260;28;20442;-55
2023/05/27 04:42:22;;;;;;;27.33;7.78;;;19.80;75.00;;;;;;4985398;28;20030;-55
2023/05/27 04:44:48;;;;;;;26.98;7.10;;;19.80;75.00;;;;;;4985638;28;20054;-54
2023/05/27 04:47:14;;;;;;;22.60;8.13;;;19.80;75.00;;;;;;4966631;28;20156;-55
2023/05/27 04:49:39;;;;;;;12.95;7.18;;;19.70;75.00;;;;;;4984356;28;20118;-55
2023/05/27 04:52:06;;;;;;;24.73;7.07;;;19.70;75.10;;;;;;4985188;28;20030;-55
2023/05/27 04:54:33;;;;;;;21.65;7.25;;;19.70;75.10;;;;;;4983597;28;20034;-55
2023/05/27 04:56:59;;;;;;;14.40;6.70;;;19.70;75.20;;;;;;4965316;28;20027;-54
2023/05/27 04:59:35;;;;;;;16.17;6.93;;;19.70;75.40;;;;;;4974213;28;20096;-55
2023/05/27 05:02:09;;;;;;;;;;;19.70;75.40;;;;;;4985294;28;20027;-55
2023/05/27 05:04:38;;;;;;;17.48;6.90;;;19.60;76.20;;;;;;5014148;28;20017;-54
2023/05/27 05:07:03;;;;;;;15.63;6.40;;;19.70;75.60;;;;;;4985758;28;20031;-54
2023/05/27 05:09:29;;;;;;;19.65;6.80;;;19.60;75.50;;;;;;4985715;28;20046;-54
2023/05/27 05:11:55;;;;;;;15.85;6.70;;;19.60;75.40;;;;;;4985587;28;20149;-56
2023/05/27 05:14:20;;;;;;;20.23;6.32;;;19.60;75.40;;;;;;4984538;28;20039;-54
2023/05/27 05:16:46;;;;;;;13.35;6.72;;;19.60;75.30;;;;;;4985277;28;20027;-55
2023/05/27 05:19:12;;;;;;;14.45;6.18;;;19.60;75.40;;;;;;4983736;28;20157;-55
2023/05/27 05:21:38;;;;;;;18.92;6.70;;;19.50;75.30;;;;;;5016526;28;20114;-55
2023/05/27 05:24:03;;;;;;;17.15;6.68;;;19.50;75.30;;;;;;4984487;28;20034;-55
2023/05/27 05:26:29;;;;;;;17.35;6.85;;;19.50;75.40;;;;;;4983608;28;20023;-55
2023/05/27 05:28:55;;;;;;;20.60;6.97;;;19.50;75.30;;;;;;4985550;28;20046;-55
2023/05/27 05:31:20;;;;;;;17.42;6.10;;;19.50;75.30;;;;;;4985145;28;20034;-54
2023/05/27 05:33:46;;;;;;;17.85;6.50;;;19.50;75.40;;;;;;4983827;28;20081;-55
2023/05/27 05:36:11;;;;;;;12.15;6.20;;;19.50;75.40;;;;;;4985186;28;20026;-54
2023/05/27 05:38:37;;;;;;;16.45;6.05;;;19.50;75.40;;;;;;4983995;28;20045;-55
2023/05/27 05:41:03;;;;;;;12.40;6.60;;;19.50;75.30;;;;;;4983600;28;20033;-55
2023/05/27 05:43:29;;;;;;;19.52;6.18;;;19.50;75.30;;;;;;4984191;28;20089;-54
2023/05/27 05:45:54;;;;;;;12.48;6.30;;;19.50;75.30;;;;;;4968473;28;20031;-54
2023/05/27 05:48:20;;;;;;;15.98;5.82;;;19.40;75.30;;;;;;4983250;28;20118;-55
2023/05/27 05:50:45;;;;;;;15.43;6.90;;;19.40;75.30;;;;;;4999511;28;20035;-52
2023/05/27 05:53:11;;;;;;;12.63;5.53;;;19.40;75.30;;;;;;4985271;28;20058;-55
2023/05/27 05:55:37;;;;;;;15.40;5.85;;;19.40;75.30;;;;;;4983606;28;20045;-54
2023/05/27 05:58:02;;;;;;;14.50;5.80;;;19.30;75.30;;;;;;4984172;28;20095;-55
2023/05/27 06:00:28;;;;;;;10.50;5.95;;;19.30;75.30;;;;;;4984042;28;20117;-54
2023/05/27 06:02:53;;;;;;;19.85;5.93;;;19.30;75.30;;;;;;4986711;28;20034;-55
2023/05/27 06:05:20;;;;;;;13.52;5.82;;;19.30;75.40;;;;;;5019493;28;20038;-55
2023/05/27 06:07:46;;;;;;;13.98;5.85;;;19.30;75.20;;;;;;4988029;28;20046;-55
2023/05/27 06:10:12;;;;;;;14.88;5.60;;;19.30;75.30;;;;;;4987648;28;20023;-54
2023/05/27 06:12:37;;;;;;;8.85;5.43;;;19.30;75.20;;;;;;4989449;28;20061;-55
2023/05/27 06:15:03;;;;;;;10.38;5.35;;;19.30;75.30;;;;;;5003824;28;20039;-55
2023/05/27 06:17:29;;;;;;;19.35;5.90;;;19.30;75.30;;;;;;4989008;28;20026;-55
2023/05/27 06:19:54;;;;;;;14.40;6.30;;;19.30;75.40;;;;;;4988978;28;20034;-54
2023/05/27 06:22:20;;;;;;;9.05;5.20;;;19.30;75.30;;;;;;4986919;28;20027;-54
2023/05/27 06:24:45;;;;;;;9.30;5.50;;;19.20;75.30;;;;;;4987707;28;20039;-54
2023/05/27 06:27:11;;;;;;;9.95;5.80;;;19.30;75.40;;;;;;4988830;28;20035;-55
2023/05/27 06:29:37;;;;;;;10.05;5.88;;;19.30;76.00;;;;;;4988761;28;20045;-55
2023/05/27 06:32:02;;;;;;;11.52;5.80;;;19.20;75.40;;;;;;4970614;28;20039;-55
2023/05/27 06:34:28;;;;;;;12.25;5.90;;;19.20;75.40;;;;;;4968165;28;20066;-54
2023/05/27 06:36:53;;;;;;;11.43;5.35;;;19.20;75.40;;;;;;4980245;28;20050;-55
2023/05/27 06:39:19;;;;;;;11.15;5.22;;;19.20;75.50;;;;;;4988284;28;20038;-55
2023/05/27 06:41:44;;;;;;;11.18;5.40;;;19.20;75.40;;;;;;4986120;28;20045;-55
2023/05/27 06:44:10;;;;;;;10.45;5.03;;;19.20;75.40;;;;;;4988346;28;20379;-55
2023/05/27 06:46:35;;;;;;;11.60;5.65;;;19.20;75.40;;;;;;4987966;28;20468;-55
2023/05/27 06:49:01;;;;;;;8.50;4.93;;;19.20;75.40;;;;;;4999607;28;20047;-54
2023/05/27 06:51:27;;;;;;;9.82;5.75;;;19.20;75.30;;;;;;4984651;28;20033;-55
2023/05/27 06:53:52;;;;;;;10.52;5.35;;;19.30;75.40;;;;;;4986534;28;20053;-55
2023/05/27 06:56:18;;;;;;;9.15;4.95;;;19.20;75.40;;;;;;5017905;28;20030;-55
2023/05/27 06:58:45;;;;;;;11.18;5.55;;;19.20;75.40;;;;;;4987017;28;20086;-54
2023/05/27 07:01:10;;;;;;;12.63;5.55;;;19.20;75.40;;;;;;4986759;28;20119;-55
2023/05/27 07:03:36;;;;;;;7.65;5.18;;;19.20;75.50;;;;;;4970792;28;20027;-55
2023/05/27 07:06:01;;;;;;;10.73;5.63;;;19.20;75.60;;;;;;4971034;28;20070;-55
2023/05/27 07:08:27;;;;;;;8.88;5.10;;;19.20;75.60;;;;;;4986770;28;20050;-55
2023/05/27 07:10:52;;;;;;;10.85;5.45;;;19.20;75.60;;;;;;4985947;28;20039;-55
2023/05/27 07:13:18;;;;;;;10.05;5.25;;;19.20;75.60;;;;;;4985144;28;20057;-55
2023/05/27 07:15:44;;;;;;;12.60;5.15;;;19.20;75.60;;;;;;4986106;28;20050;-55
2023/05/27 07:18:09;;;;;;;11.45;5.70;;;19.20;76.30;;;;;;5018641;28;20027;-55
2023/05/27 07:20:35;;;;;;;9.57;5.45;;;19.20;75.50;;;;;;4986050;28;20050;-55
2023/05/27 07:23:01;;;;;;;9.27;4.57;;;19.20;75.60;;;;;;4986329;28;20038;-54
2023/05/27 07:25:26;;;;;;;8.15;4.75;;;19.20;75.60;;;;;;4985277;28;20058;-55
2023/05/27 07:27:52;;;;;;;9.85;5.15;;;19.20;75.80;;;;;;5001795;28;20037;-55
2023/05/27 07:30:17;;;;;;;12.48;5.53;;;19.20;75.70;;;;;;4986665;28;20090;-55
2023/05/27 07:32:43;;;;;;;9.45;5.28;;;19.20;75.70;;;;;;4985936;28;20031;-54
2023/05/27 07:35:08;;;;;;;12.55;5.50;;;19.20;75.60;;;;;;4986250;28;20039;-55
2023/05/27 07:37:34;;;;;;;10.07;4.95;;;19.20;75.60;;;;;;4985865;28;20340;-55
2023/05/27 07:40:00;;;;;;;9.20;5.07;;;19.20;75.70;;;;;;4985782;28;20034;-55
2023/05/27 07:42:25;;;;;;;8.93;5.05;;;19.20;75.70;;;;;;5017216;28;20039;-55
2023/05/27 07:44:51;;;;;;;10.05;5.38;;;19.20;75.70;;;;;;4983605;28;20031;-55
2023/05/27 07:47:16;;;;;;;13.60;5.68;;;19.20;75.80;;;;;;5017710;28;20027;-55
2023/05/27 07:49:42;;;;;;;10.30;5.32;;;19.20;75.70;;;;;;4970381;28;20042;-55
2023/05/27 07:52:07;;;;;;;10.32;5.22;;;19.20;75.70;;;;;;4987259;28;20027;-55
2023/05/27 07:54:33;;;;;;;11.85;5.10;;;19.20;75.70;;;;;;4985434;28;20034;-54
2023/05/27 07:56:58;;;;;;;15.43;5.38;;;19.20;75.60;;;;;;4963274;28;20058;-55
2023/05/27 07:59:24;;;;;;;12.32;5.53;;;19.20;75.70;;;;;;4985554;28;20027;-55
2023/05/27 08:01:50;;;;;;;11.32;5.63;;;19.20;75.90;;;;;;4985566;28;20082;-55
2023/05/27 08:04:15;;;;;;;18.67;6.60;;;19.20;76.00;;;;;;4983176;28;20085;-55
2023/05/27 08:06:41;;;;;;;22.50;6.45;;;19.20;76.40;;;;;;5009280;28;20041;-54
2023/05/27 08:09:07;;;;;;;13.57;6.57;;;19.20;76.60;;;;;;4983010;28;20070;-59
2023/05/27 08:11:33;;;;;;;19.00;5.88;;;19.20;76.80;;;;;;4981798;28;20041;-59
2023/05/27 08:13:58;;;;;;;12.48;5.80;;;19.10;77.60;;;;;;4984111;28;20038;-58
2023/05/27 08:16:24;;;;;;;23.92;7.03;;;19.10;77.00;;;;;;4984195;28;20065;-58
2023/05/27 08:18:50;;;;;;;23.48;6.68;;;19.10;77.20;;;;;;4979753;28;20027;-59
2023/05/27 08:21:16;;;;;;;25.23;7.55;;;19.20;77.50;;;;;;4983145;28;20027;-59
2023/05/27 08:23:42;;;;;;;42.75;8.27;;;19.20;77.70;;;;;;4977983;28;20158;-59
2023/05/27 08:26:08;;;;;;;27.58;7.40;;;19.20;78.00;;;;;;4994448;28;20086;-59
2023/05/27 08:28:36;;;;;;;38.03;9.23;;;19.20;78.00;;;;;;4982569;28;20314;-59
2023/05/27 08:31:05;;;;;;;51.85;9.50;;;19.20;78.80;;;;;;4983405;28;20035;-59
2023/05/27 08:33:30;;;;;;;62.80;11.15;;;19.20;78.10;;;;;;4978987;28;20049;-59
2023/05/27 08:35:56;;;;;;;66.03;10.27;;;19.30;78.40;;;;;;5001711;28;20031;-59
2023/05/27 08:38:22;;;;;;;71.43;11.35;;;19.30;78.60;;;;;;4967881;28;20031;-59
2023/05/27 08:40:48;;;;;;;86.90;13.05;;;19.30;78.70;;;;;;4971950;28;20031;-59
2023/05/27 08:43:13;;;;;;;157.45;20.25;;;19.30;78.90;;;;;;4967501;28;20415;-59
2023/05/27 08:45:40;;;;;;;101.00;14.88;;;19.30;79.00;;;;;;4983275;28;20058;-58
2023/05/27 08:48:08;;;;;;;100.53;13.23;;;19.40;79.20;;;;;;4984360;28;20035;-57
2023/05/27 08:50:33;;;;;;;105.07;16.23;;;19.40;79.20;;;;;;4981892;28;20050;-59
2023/05/27 08:52:59;;;;;;;102.38;16.17;;;19.40;80.00;;;;;;4983376;28;20471;-59
2023/05/27 08:55:25;;;;;;;157.57;19.05;;;19.40;79.30;;;;;;4983787;28;20034;-58
2023/05/27 08:57:53;;;;;;;114.45;16.90;;;19.40;79.60;;;;;;4982824;28;20022;-59
2023/05/27 09:00:19;;;;;;;114.55;15.43;;;19.50;79.70;;;;;;4975951;28;20047;-59
2023/05/27 09:02:45;;;;;;;119.97;16.83;;;19.50;79.70;;;;;;4983786;28;20014;-59
2023/05/27 09:05:10;;;;;;;140.73;19.23;;;19.50;79.90;;;;;;4984849;28;20034;-59
2023/05/27 09:07:37;;;;;;;154.57;19.33;;;19.60;80.30;;;;;;4978167;28;20511;-59
2023/05/27 09:10:04;;;;;;;180.70;20.67;;;19.60;80.30;;;;;;4976851;28;20111;-58
2023/05/27 09:12:30;;;;;;;152.20;22.42;;;19.60;80.70;;;;;;4981457;28;20035;-59
2023/05/27 09:14:56;;;;;;;144.02;19.23;;;19.70;80.70;;;;;;4984422;28;20049;-58
2023/05/27 09:17:25;;;;;;;154.93;19.70;;;19.70;80.60;;;;;;4982310;28;20043;-58
2023/05/27 09:19:51;;;;;;;136.50;19.30;;;19.70;80.30;;;;;;4972121;28;20028;-58
2023/05/27 09:22:35;;;;;;;136.20;18.42;;;19.70;79.70;;;;;;4986234;28;20110;-59
2023/05/27 09:25:00;;;;;;;123.97;18.52;;;19.70;79.60;;;;;;4993944;28;20046;-59
2023/05/27 09:27:30;;;;;;;130.20;19.58;;;19.70;80.40;;;;;;4982324;28;20030;-58
2023/05/27 09:29:56;;;;;;;129.48;17.80;;;19.70;80.20;;;;;;4998654;28;20093;-59
2023/05/27 09:32:30;;;;;;;146.45;19.92;;;19.70;80.20;;;;;;4980365;28;20411;-58
2023/05/27 09:34:56;;;;;;;144.65;19.40;;;19.80;80.50;;;;;;5000246;28;20061;-59
2023/05/27 09:37:31;;;;;;;169.93;20.40;;;19.80;80.60;;;;;;4982494;28;20050;-58
2023/05/27 09:39:58;;;;;;;159.10;21.33;;;19.80;80.90;;;;;;4965536;28;20042;-58
2023/05/27 09:42:23;;;;;;;178.70;22.30;;;19.90;80.80;;;;;;4984863;28;20062;-59
2023/05/27 09:44:49;;;;;;;164.13;22.05;;;19.90;80.70;;;;;;5016214;28;20039;-59
2023/05/27 09:47:20;;;;;;;147.73;20.63;;;19.90;80.80;;;;;;4992714;28;20101;-59
2023/05/27 09:49:45;;;;;;;154.70;21.05;;;20.00;80.80;;;;;;4983611;28;20054;-59
2023/05/27 09:52:12;;;;;;;124.00;20.00;;;20.00;80.70;;;;;;4981161;28;20051;-59
2023/05/27 09:54:38;;;;;;;145.15;22.30;;;20.10;80.80;;;;;;4965736;28;20047;-59
2023/05/27 09:57:05;;;;;;;163.60;19.80;;;20.10;80.80;;;;;;4998774;28;20023;-58
2023/05/27 09:59:30;;;;;;;151.27;21.02;;;20.10;80.70;;;;;;4982716;28;20031;-59
2023/05/27 10:01:56;;;;;;;153.48;20.65;;;20.10;80.70;;;;;;4980232;28;20058;-59
2023/05/27 10:04:22;;;;;;;138.75;20.73;;;20.20;80.80;;;;;;4981549;28;20062;-59
2023/05/27 10:06:48;;;;;;;147.07;21.67;;;20.20;80.70;;;;;;4988758;28;20062;-59
2023/05/27 10:09:15;;;;;;;151.45;20.58;;;20.30;80.50;;;;;;4979654;28;20098;-59
2023/05/27 10:11:41;;;;;;;149.40;20.90;;;20.30;80.30;;;;;;4981436;28;20526;-59
2023/05/27 10:14:06;;;;;;;148.95;21.85;;;20.40;80.10;;;;;;4982056;28;20043;-59
2023/05/27 10:16:32;;;;;;;135.40;19.15;;;20.40;79.80;;;;;;4977289;28;20023;-59
2023/05/27 10:18:58;;;;;;;139.10;20.55;;;20.40;79.70;;;;;;4979549;28;20035;-59
2023/05/27 10:21:27;;;;;;;179.98;24.88;;;20.40;79.60;;;;;;4962669;28;20071;-58
2023/05/27 10:24:02;;;;;;;156.90;20.17;;;20.50;79.70;;;;;;4979871;28;20026;-58
2023/05/27 10:26:41;;;;;;;122.97;18.92;;;20.50;79.50;;;;;;4978755;28;20102;-59
2023/05/27 10:29:09;;;;;;;122.30;17.75;;;20.60;79.40;;;;;;4998390;28;20035;-59
2023/05/27 10:31:38;;;;;;;131.73;18.63;;;20.60;79.20;;;;;;4981292;28;20027;-59
2023/05/27 10:34:05;;;;;;;114.47;17.55;;;20.70;79.10;;;;;;4980227;28;20042;-59
2023/05/27 10:36:31;;;;;;;113.03;19.02;;;20.70;78.90;;;;;;4982820;28;20119;-58
2023/05/27 10:39:05;;;;;;;121.45;19.13;;;20.80;78.90;;;;;;4982591;28;20479;-57
2023/05/27 10:41:40;;;;;;;114.32;17.58;;;20.80;78.90;;;;;;4980182;28;20026;-59
2023/05/27 10:44:06;;;;;;;118.53;16.95;;;20.80;78.70;;;;;;4978696;28;20453;-59
2023/05/27 10:46:41;;;;;;;123.03;18.50;;;20.90;78.60;;;;;;4981882;28;20054;-59
2023/05/27 10:49:11;;;;;;;;;;;21.00;78.50;;;;;;4999111;28;20031;-58
2023/05/27 10:51:36;;;;;;;113.10;17.20;;;21.10;78.10;;;;;;4984664;28;19910;-59
2023/05/27 10:54:06;;;;;;;94.22;17.00;;;21.20;77.90;;;;;;4986599;28;20058;-59
2023/05/27 10:56:32;;;;;;;85.72;15.52;;;21.30;77.70;;;;;;4986268;28;20023;-58
2023/05/27 10:58:57;;;;;;;90.90;14.77;;;21.30;77.30;;;;;;4986310;28;20067;-59
2023/05/27 11:01:23;;;;;;;99.00;15.80;;;21.40;77.00;;;;;;4986831;28;20111;-58
2023/05/27 11:03:49;;;;;;;87.88;14.80;;;21.50;76.70;;;;;;4987146;28;20116;-58
2023/05/27 11:06:16;;;;;;;85.70;14.35;;;21.50;76.30;;;;;;4967710;28;20042;-58
2023/05/27 11:08:42;;;;;;;88.78;14.32;;;21.60;76.20;;;;;;4986843;28;20113;-59
2023/05/27 11:11:08;;;;;;;86.63;13.23;;;21.70;76.00;;;;;;4973178;28;20046;-59
2023/05/27 11:13:35;;;;;;;81.32;12.10;;;21.80;75.70;;;;;;4982819;28;20030;-59
2023/05/27 11:16:05;;;;;;;73.65;12.73;;;21.90;75.40;;;;;;4984361;28;20039;-59
2023/05/27 11:18:38;;;;;;;69.38;12.07;;;22.00;75.10;;;;;;4965866;28;20027;-59
2023/05/27 11:21:04;;;;;;;75.63;12.75;;;22.00;74.60;;;;;;4976569;28;20035;-59
2023/05/27 11:23:40;;;;;;;59.30;11.00;;;22.20;74.40;;;;;;4986289;28;20031;-59
2023/05/27 11:26:25;;;;;;;63.38;11.40;;;22.20;74.10;;;;;;4984444;28;20042;-58
2023/05/27 11:28:51;;;;;;;77.03;12.13;;;22.30;74.40;;;;;;4974364;28;20105;-58
2023/05/27 11:31:19;;;;;;;62.50;11.27;;;22.40;73.60;;;;;;4987721;28;20027;-59
2023/05/27 11:33:46;;;;;;;54.40;11.45;;;22.50;73.50;;;;;;4985513;28;20166;-59
2023/05/27 11:36:13;;;;;;;59.00;11.35;;;22.60;73.10;;;;;;4985683;28;20025;-59
2023/05/27 11:38:48;;;;;;;99.70;15.95;;;22.70;72.80;;;;;;4986180;28;20062;-59
2023/05/27 11:41:13;;;;;;;77.40;12.23;;;22.80;72.20;;;;;;4983813;28;20057;-59
2023/05/27 11:43:56;;;;;;;72.82;12.18;;;22.80;72.10;;;;;;4982852;28;20043;-58
2023/05/27 11:46:21;;;;;;;73.07;12.27;;;23.00;71.90;;;;;;4984699;28;20035;-59
2023/05/27 11:48:47;;;;;;;57.63;11.52;;;23.10;71.80;;;;;;4983063;28;20030;-59
2023/05/27 11:51:13;;;;;;;70.78;12.65;;;23.10;71.60;;;;;;4980803;28;20030;-59
2023/05/27 11:53:40;;;;;;;88.65;12.50;;;23.20;71.60;;;;;;4982778;28;20042;-59
2023/05/27 11:56:06;;;;;;;74.80;12.60;;;23.30;71.40;;;;;;4985024;28;20027;-59
2023/05/27 11:58:31;;;;;;;69.30;12.18;;;23.30;71.40;;;;;;4986368;28;20051;-55
2023/05/27 12:00:57;;;;;;;61.35;11.52;;;23.50;71.10;;;;;;4984800;28;20415;-55
2023/05/27 12:03:23;;;;;;;66.85;12.15;;;23.50;70.70;;;;;;4969235;28;20031;-54
2023/05/27 12:05:48;;;;;;;62.90;10.27;;;23.60;70.40;;;;;;4986761;28;20041;-55
2023/05/27 12:08:14;;;;;;;75.50;14.20;;;23.60;69.80;;;;;;4987592;28;20062;-55
2023/05/27 12:10:39;;;;;;;74.65;12.18;;;23.70;69.60;;;;;;4985590;28;20054;-54
2023/05/27 12:13:05;;;;;;;56.90;11.98;;;23.80;70.30;;;;;;4984580;28;20034;-55
2023/05/27 12:15:32;;;;;;;67.55;10.95;;;23.90;69.50;;;;;;4985937;28;20098;-54
2023/05/27 12:17:57;;;;;;;67.60;11.77;;;24.00;68.90;;;;;;4984266;28;20396;-53
2023/05/27 12:20:27;;;;;;;71.60;11.48;;;24.10;68.80;;;;;;4986351;28;20057;-54
2023/05/27 12:22:53;;;;;;;52.05;10.02;;;24.10;68.60;;;;;;4986889;28;20042;-55
2023/05/27 12:25:19;;;;;;;61.20;11.00;;;24.20;68.10;;;;;;4984207;28;20038;-59
2023/05/27 12:27:44;;;;;;;65.70;10.77;;;24.30;67.90;;;;;;4983688;28;20030;-59
2023/05/27 12:30:10;;;;;;;61.88;11.32;;;24.40;67.70;;;;;;4983983;28;20061;-59
2023/05/27 12:32:36;;;;;;;67.07;11.90;;;24.50;67.20;;;;;;4982641;28;20042;-59